createdAt,value
2023-12-11T00:02:03.109Z,2.20
2023-12-11T00:04:30.760Z,2.35
2023-12-11T00:06:57.889Z,2.85
2023-12-11T00:09:25.132Z,1.90
2023-12-11T00:11:52.129Z,1.90
2023-12-11T00:14:19.196Z,1.83
2023-12-11T00:16:48.205Z,1.90
2023-12-11T00:19:15.595Z,1.83
2023-12-11T00:21:42.856Z,1.70
2023-12-11T00:24:09.987Z,2.03
2023-12-11T00:26:37.454Z,1.60
2023-12-11T00:29:05.181Z,2.08
2023-12-11T00:31:32.211Z,1.40
2023-12-11T00:33:59.810Z,1.60
2023-12-11T00:36:26.968Z,1.80
2023-12-11T00:38:54.349Z,1.60
2023-12-11T00:41:21.779Z,1.40
2023-12-11T00:43:50.541Z,1.65
2023-12-11T00:46:26.866Z,1.50
2023-12-11T00:48:54.664Z,1.25
2023-12-11T00:51:22.471Z,1.48
2023-12-11T00:53:49.757Z,1.80
2023-12-11T00:56:17.026Z,1.40
2023-12-11T00:58:44.609Z,1.35
2023-12-11T01:01:12.120Z,1.20
2023-12-11T01:03:40.015Z,1.45
2023-12-11T01:06:07.538Z,1.40
2023-12-11T01:08:39.986Z,1.45
2023-12-11T01:11:07.759Z,1.20
2023-12-11T01:13:34.906Z,1.20
2023-12-11T01:16:02.076Z,1.38
2023-12-11T01:18:29.918Z,1.40
2023-12-11T01:20:57.184Z,1.38
2023-12-11T01:23:24.177Z,1.30
2023-12-11T01:25:51.174Z,1.27
2023-12-11T01:28:19.751Z,1.30
2023-12-11T01:30:46.826Z,1.40
2023-12-11T01:33:14.040Z,1.33
2023-12-11T01:35:41.355Z,1.40
2023-12-11T01:38:08.427Z,1.20
2023-12-11T01:40:35.681Z,1.75
2023-12-11T01:43:18.463Z,1.50
2023-12-11T01:45:58.569Z,1.25
2023-12-11T01:48:26.145Z,1.20
2023-12-11T01:50:53.338Z,1.48
2023-12-11T01:53:20.538Z,1.40
2023-12-11T01:55:49.844Z,1.45
2023-12-11T01:58:17.788Z,1.48
2023-12-11T02:00:45.059Z,1.10
2023-12-11T02:03:12.361Z,1.10
2023-12-11T02:05:42.073Z,1.38
2023-12-11T02:08:09.787Z,1.35
2023-12-11T02:10:37.530Z,1.20
2023-12-11T02:13:05.419Z,1.35
2023-12-11T02:15:46.610Z,1.45
2023-12-11T02:18:15.960Z,1.20
2023-12-11T02:20:44.290Z,1.45
2023-12-11T02:23:16.121Z,1.30
2023-12-11T02:25:46.991Z,1.35
2023-12-11T02:28:14.222Z,1.00
2023-12-11T02:30:52.221Z,1.20
2023-12-11T02:33:19.493Z,1.05
2023-12-11T02:35:46.528Z,1.20
2023-12-11T02:38:13.492Z,1.10
2023-12-11T02:40:40.763Z,1.17
2023-12-11T02:43:07.813Z,1.20
2023-12-11T02:45:34.974Z,1.30
2023-12-11T02:48:04.910Z,1.20
2023-12-11T02:50:32.950Z,1.00
2023-12-11T02:53:01.148Z,1.13
2023-12-11T02:55:28.240Z,1.00
2023-12-11T02:57:58.812Z,1.10
2023-12-11T03:00:27.388Z,0.82
2023-12-11T03:02:54.791Z,0.90
2023-12-11T03:05:22.005Z,1.83
2023-12-11T03:07:49.216Z,1.02
2023-12-11T03:10:16.570Z,1.13
2023-12-11T03:12:43.745Z,1.33
2023-12-11T03:15:11.690Z,1.05
2023-12-11T03:17:39.080Z,1.20
2023-12-11T03:20:09.524Z,1.40
2023-12-11T03:22:36.567Z,1.45
2023-12-11T03:25:03.817Z,1.20
2023-12-11T03:27:30.986Z,1.00
2023-12-11T03:29:58.146Z,1.10
2023-12-11T03:32:25.341Z,1.20
2023-12-11T03:34:52.505Z,1.27
2023-12-11T03:37:19.640Z,1.27
2023-12-11T03:39:46.712Z,1.23
2023-12-11T03:42:13.798Z,1.40
2023-12-11T03:44:40.863Z,1.05
2023-12-11T03:47:07.907Z,1.20
2023-12-11T03:49:35.033Z,1.05
2023-12-11T03:52:02.147Z,1.52
2023-12-11T03:54:29.358Z,1.20
2023-12-11T03:56:56.351Z,1.38
2023-12-11T03:59:24.091Z,1.13
2023-12-11T04:01:51.292Z,1.05
2023-12-11T04:04:18.684Z,1.13
2023-12-11T04:06:46.171Z,1.23
2023-12-11T04:09:13.328Z,1.10
2023-12-11T04:11:40.361Z,1.27
2023-12-11T04:14:07.370Z,1.02
2023-12-11T04:16:34.397Z,1.35
2023-12-11T04:19:01.521Z,1.13
2023-12-11T04:21:28.652Z,1.25
2023-12-11T04:23:56.693Z,1.10
2023-12-11T04:26:24.210Z,1.10
2023-12-11T04:28:51.204Z,1.20
2023-12-11T04:31:18.296Z,1.27
2023-12-11T04:33:45.605Z,1.25
2023-12-11T04:36:12.707Z,1.08
2023-12-11T04:38:39.785Z,1.05
2023-12-11T04:41:06.933Z,0.93
2023-12-11T04:43:37.219Z,1.27
2023-12-11T04:46:04.509Z,1.13
2023-12-11T04:48:31.954Z,1.40
2023-12-11T04:50:59.149Z,1.40
2023-12-11T04:53:26.185Z,1.33
2023-12-11T04:55:53.290Z,1.35
2023-12-11T04:58:21.498Z,1.20
2023-12-11T05:00:49.083Z,0.90
2023-12-11T05:03:16.272Z,1.05
2023-12-11T05:05:43.320Z,1.08
2023-12-11T05:08:10.380Z,0.90
2023-12-11T05:10:37.394Z,1.10
2023-12-11T05:13:04.459Z,1.20
2023-12-11T05:15:31.572Z,1.20
2023-12-11T05:17:58.585Z,1.77
2023-12-11T05:20:25.622Z,1.23
2023-12-11T05:22:52.756Z,0.93
2023-12-11T05:25:20.372Z,1.00
2023-12-11T05:27:47.506Z,1.00
2023-12-11T05:30:14.781Z,1.02
2023-12-11T05:32:42.477Z,1.42
2023-12-11T05:35:09.711Z,1.52
2023-12-11T05:37:36.871Z,1.20
2023-12-11T05:40:21.422Z,1.25
2023-12-11T05:42:51.958Z,1.05
2023-12-11T05:45:19.399Z,1.40
2023-12-11T05:47:47.522Z,1.23
2023-12-11T05:50:14.836Z,1.38
2023-12-11T05:52:42.020Z,1.48
2023-12-11T05:55:09.261Z,1.23
2023-12-11T05:57:36.375Z,1.30
2023-12-11T06:00:04.658Z,1.40
2023-12-11T06:02:32.686Z,1.42
2023-12-11T06:04:59.756Z,1.17
2023-12-11T06:07:26.827Z,1.42
2023-12-11T06:09:53.896Z,1.17
2023-12-11T06:12:20.970Z,1.77
2023-12-11T06:14:49.583Z,1.20
2023-12-11T06:17:17.475Z,1.50
2023-12-11T06:19:45.138Z,1.30
2023-12-11T06:22:12.559Z,1.63
2023-12-11T06:24:43.623Z,1.33
2023-12-11T06:27:11.457Z,1.88
2023-12-11T06:29:40.110Z,1.60
2023-12-11T06:32:07.548Z,1.55
2023-12-11T06:34:35.741Z,1.60
2023-12-11T06:37:03.611Z,2.08
2023-12-11T06:39:31.841Z,1.38
2023-12-11T06:42:00.169Z,1.80
2023-12-11T06:44:28.110Z,1.55
2023-12-11T06:46:55.377Z,2.22
2023-12-11T06:49:22.711Z,1.50
2023-12-11T06:51:50.340Z,1.63
2023-12-11T06:54:17.498Z,1.30
2023-12-11T06:56:44.536Z,1.40
2023-12-11T06:59:12.335Z,2.00
2023-12-11T07:01:39.620Z,2.00
2023-12-11T07:04:07.229Z,1.83
2023-12-11T07:06:34.666Z,1.80
2023-12-11T07:09:01.787Z,3.13
2023-12-11T07:11:28.708Z,1.55
2023-12-11T07:13:55.914Z,2.25
2023-12-11T07:16:24.779Z,2.35
2023-12-11T07:18:52.937Z,2.00
2023-12-11T07:21:20.317Z,2.00
2023-12-11T07:23:49.422Z,2.20
2023-12-11T07:26:16.700Z,2.30
2023-12-11T07:28:44.113Z,1.92
2023-12-11T07:31:11.061Z,2.00
2023-12-11T07:33:38.383Z,2.25
2023-12-11T07:36:06.193Z,2.08
2023-12-11T07:38:33.645Z,2.28
2023-12-11T07:41:01.286Z,2.03
2023-12-11T07:43:28.694Z,1.85
2023-12-11T07:45:56.624Z,1.88
2023-12-11T07:48:23.803Z,2.05
2023-12-11T07:50:50.889Z,2.30
2023-12-11T07:53:18.185Z,2.58
2023-12-11T07:55:46.556Z,2.40
2023-12-11T07:58:15.091Z,2.45
2023-12-11T08:00:42.442Z,2.60
2023-12-11T08:03:09.782Z,4.00
2023-12-11T08:05:36.848Z,3.10
2023-12-11T08:08:04.041Z,2.53
2023-12-11T08:10:31.156Z,2.85
2023-12-11T08:12:58.340Z,2.33
2023-12-11T08:15:25.543Z,2.70
2023-12-11T08:17:52.780Z,3.03
2023-12-11T08:20:20.934Z,2.33
2023-12-11T08:22:49.080Z,4.60
2023-12-11T08:25:16.445Z,2.85
2023-12-11T08:27:44.423Z,2.10
2023-12-11T08:30:12.385Z,2.22
2023-12-11T08:32:41.171Z,1.80
2023-12-11T08:35:09.717Z,2.50
2023-12-11T08:37:37.795Z,2.50
2023-12-11T08:40:06.256Z,2.47
2023-12-11T08:42:38.905Z,2.40
2023-12-11T08:45:08.720Z,2.50
2023-12-11T08:47:39.131Z,2.90
2023-12-11T08:50:09.156Z,2.60
2023-12-11T08:52:38.123Z,2.83
2023-12-11T08:55:06.677Z,2.63
2023-12-11T08:57:34.547Z,2.53
2023-12-11T09:00:02.294Z,2.38
2023-12-11T09:02:29.701Z,2.00
2023-12-11T09:04:56.881Z,2.00
2023-12-11T09:07:24.187Z,1.52
2023-12-11T09:09:51.506Z,1.55
2023-12-11T09:12:28.189Z,1.55
2023-12-11T09:15:01.530Z,1.40
2023-12-11T09:17:29.898Z,1.50
2023-12-11T09:19:57.714Z,1.23
2023-12-11T09:22:25.570Z,1.70
2023-12-11T09:24:52.947Z,1.58
2023-12-11T09:27:20.077Z,1.40
2023-12-11T09:29:50.744Z,1.30
2023-12-11T09:32:18.537Z,1.10
2023-12-11T09:34:46.528Z,1.15
2023-12-11T09:37:15.215Z,1.23
2023-12-11T09:39:42.503Z,1.10
2023-12-11T09:42:11.335Z,1.42
2023-12-11T09:44:39.051Z,1.10
2023-12-11T09:47:10.668Z,1.30
2023-12-11T09:49:39.108Z,1.65
2023-12-11T09:52:06.399Z,1.45
2023-12-11T09:54:33.501Z,1.25
2023-12-11T09:57:01.437Z,1.30
2023-12-11T09:59:31.469Z,1.13
2023-12-11T10:01:59.103Z,1.17
2023-12-11T10:04:26.503Z,1.20
2023-12-11T10:06:54.419Z,1.30
2023-12-11T10:09:34.482Z,1.27
2023-12-11T10:12:07.353Z,1.50
2023-12-11T10:14:38.269Z,1.77
2023-12-11T10:17:17.232Z,1.30
2023-12-11T10:19:44.598Z,1.30
2023-12-11T10:22:29.518Z,1.60
2023-12-11T10:24:57.333Z,1.25
2023-12-11T10:27:25.606Z,1.65
2023-12-11T10:30:08.968Z,1.13
2023-12-11T10:32:36.108Z,1.10
2023-12-11T10:35:03.785Z,1.40
2023-12-11T10:37:31.844Z,1.80
2023-12-11T10:39:59.742Z,1.40
2023-12-11T10:42:27.942Z,1.30
2023-12-11T10:44:56.972Z,1.45
2023-12-11T10:47:24.400Z,1.40
2023-12-11T10:49:51.916Z,1.38
2023-12-11T10:52:19.346Z,1.60
2023-12-11T10:54:46.996Z,1.40
2023-12-11T10:57:16.685Z,2.45
2023-12-11T10:59:45.139Z,1.58
2023-12-11T11:02:15.489Z,1.88
2023-12-11T11:04:45.563Z,1.70
2023-12-11T11:07:25.615Z,1.60
2023-12-11T11:10:10.409Z,2.15
2023-12-11T11:12:44.568Z,2.30
2023-12-11T11:15:11.692Z,1.45
2023-12-11T11:17:58.100Z,1.98
2023-12-11T11:20:25.790Z,2.20
2023-12-11T11:22:53.145Z,1.65
2023-12-11T11:25:33.452Z,1.60
2023-12-11T11:28:01.823Z,1.65
2023-12-11T11:30:47.741Z,1.50
2023-12-11T11:33:15.150Z,2.38
2023-12-11T11:35:45.052Z,1.65
2023-12-11T11:38:12.742Z,1.77
2023-12-11T11:40:40.214Z,2.05
2023-12-11T11:43:12.163Z,2.03
2023-12-11T11:45:39.708Z,1.90
2023-12-11T11:48:08.793Z,1.60
2023-12-11T11:50:36.499Z,1.85
2023-12-11T11:53:10.068Z,1.65
2023-12-11T11:55:39.867Z,1.90
2023-12-11T11:58:14.531Z,1.88
2023-12-11T12:00:42.024Z,1.80
2023-12-11T12:03:10.032Z,1.88
2023-12-11T12:05:38.094Z,1.80
2023-12-11T12:08:09.308Z,1.70
2023-12-11T12:10:36.490Z,1.92
2023-12-11T12:13:05.666Z,2.00
2023-12-11T12:15:52.977Z,2.33
2023-12-11T12:18:20.182Z,2.10
2023-12-11T12:21:02.675Z,2.20
2023-12-11T12:23:30.193Z,2.25
2023-12-11T12:26:00.320Z,2.05
2023-12-11T12:28:30.584Z,3.10
2023-12-11T12:30:58.128Z,2.90
2023-12-11T12:33:26.187Z,2.38
2023-12-11T12:35:53.734Z,2.45
2023-12-11T12:38:22.718Z,2.40
2023-12-11T12:40:50.165Z,2.10
2023-12-11T12:43:17.534Z,3.25
2023-12-11T12:45:46.058Z,2.67
2023-12-11T12:48:14.911Z,1.88
2023-12-11T12:50:42.077Z,2.78
2023-12-11T12:53:12.349Z,2.50
2023-12-11T12:55:43.108Z,2.53
2023-12-11T12:58:15.396Z,2.30
2023-12-11T13:00:44.364Z,2.30
2023-12-11T13:03:11.714Z,3.15
2023-12-11T13:05:45.214Z,2.70
2023-12-11T13:08:13.246Z,2.83
2023-12-11T13:10:54.350Z,2.30
2023-12-11T13:13:23.088Z,2.73
2023-12-11T13:15:50.227Z,2.88
2023-12-11T13:18:17.565Z,3.10
2023-12-11T13:20:45.248Z,2.85
2023-12-11T13:23:12.652Z,2.65
2023-12-11T13:25:40.034Z,2.67
2023-12-11T13:28:07.629Z,2.60
2023-12-11T13:30:35.201Z,3.22
2023-12-11T13:33:02.534Z,2.78
2023-12-11T13:35:29.600Z,2.85
2023-12-11T13:37:57.508Z,2.97
2023-12-11T13:40:24.838Z,3.30
2023-12-11T13:42:53.991Z,3.17
2023-12-11T13:45:22.293Z,3.55
2023-12-11T13:47:49.374Z,3.00
2023-12-11T13:50:16.578Z,2.33
2023-12-11T13:52:44.116Z,3.03
2023-12-11T13:55:11.370Z,3.28
2023-12-11T13:57:38.491Z,3.10
2023-12-11T14:00:07.327Z,2.70
2023-12-11T14:02:59.511Z,3.00
2023-12-11T14:05:21.606Z,3.08
2023-12-11T14:07:50.210Z,2.92
2023-12-11T14:10:17.810Z,3.35
2023-12-11T14:12:45.620Z,3.65
2023-12-11T14:15:12.661Z,2.88
2023-12-11T14:17:39.854Z,2.95
2023-12-11T14:20:07.818Z,2.75
2023-12-11T14:22:35.729Z,3.10
2023-12-11T14:25:04.284Z,2.88
2023-12-11T14:27:32.410Z,3.30
2023-12-11T14:30:00.295Z,2.75
2023-12-11T14:32:27.757Z,3.30
2023-12-11T14:34:54.901Z,2.53
2023-12-11T14:37:22.446Z,3.40
2023-12-11T14:39:50.727Z,3.25
2023-12-11T14:42:20.479Z,3.38
2023-12-11T14:44:47.630Z,3.25
2023-12-11T14:47:14.614Z,3.10
2023-12-11T14:49:42.210Z,3.10
2023-12-11T14:52:09.371Z,2.97
2023-12-11T14:54:36.442Z,2.90
2023-12-11T14:57:04.030Z,3.22
2023-12-11T14:59:31.303Z,3.40
2023-12-11T15:01:58.406Z,3.25
2023-12-11T15:04:25.711Z,2.97
2023-12-11T15:06:54.976Z,2.55
2023-12-11T15:09:22.853Z,3.30
2023-12-11T15:11:51.063Z,4.00
2023-12-11T15:14:18.528Z,3.92
2023-12-11T15:16:47.414Z,3.75
2023-12-11T15:19:14.739Z,3.45
2023-12-11T15:21:41.923Z,2.78
2023-12-11T15:24:08.961Z,3.45
2023-12-11T15:26:35.991Z,2.85
2023-12-11T15:29:07.061Z,3.50
2023-12-11T15:31:35.402Z,3.63
2023-12-11T15:34:02.646Z,3.13
2023-12-11T15:36:29.725Z,3.20
2023-12-11T15:38:56.729Z,3.80
2023-12-11T15:41:23.718Z,2.97
2023-12-11T15:43:50.725Z,3.28
2023-12-11T15:46:17.969Z,3.08
2023-12-11T15:48:46.734Z,3.67
2023-12-11T15:51:19.525Z,3.55
2023-12-11T15:53:47.378Z,2.95
2023-12-11T15:56:17.507Z,2.72
2023-12-11T15:58:45.231Z,3.42
2023-12-11T16:01:12.730Z,3.55
2023-12-11T16:03:40.226Z,3.67
2023-12-11T16:06:08.499Z,3.20
2023-12-11T16:08:35.637Z,3.22
2023-12-11T16:11:02.648Z,3.25
2023-12-11T16:13:29.895Z,3.20
2023-12-11T16:15:57.590Z,2.88
2023-12-11T16:18:24.979Z,3.60
2023-12-11T16:20:52.110Z,2.95
2023-12-11T16:23:19.330Z,3.38
2023-12-11T16:25:51.479Z,2.92
2023-12-11T16:28:27.170Z,2.85
2023-12-11T16:30:54.741Z,2.78
2023-12-11T16:33:22.041Z,2.80
2023-12-11T16:35:49.178Z,3.50
2023-12-11T16:38:16.809Z,3.50
2023-12-11T16:40:43.794Z,3.88
2023-12-11T16:43:10.983Z,3.95
2023-12-11T16:45:38.636Z,4.35
2023-12-11T16:48:06.117Z,4.03
2023-12-11T16:50:34.322Z,4.07
2023-12-11T16:53:05.972Z,3.53
2023-12-11T16:55:33.820Z,3.70
2023-12-11T16:58:01.069Z,3.40
2023-12-11T17:00:28.210Z,3.67
2023-12-11T17:02:55.240Z,3.30
2023-12-11T17:05:22.336Z,3.13
2023-12-11T17:07:49.906Z,3.42
2023-12-11T17:10:16.999Z,4.18
2023-12-11T17:12:44.079Z,3.55
2023-12-11T17:15:11.275Z,2.97
2023-12-11T17:17:38.388Z,3.08
2023-12-11T17:20:06.014Z,3.20
2023-12-11T17:22:33.178Z,3.30
2023-12-11T17:25:00.976Z,3.08
2023-12-11T17:27:28.365Z,4.50
2023-12-11T17:29:55.412Z,3.65
2023-12-11T17:32:22.451Z,2.63
2023-12-11T17:34:49.576Z,3.20
2023-12-11T17:37:16.856Z,3.35
2023-12-11T17:39:44.178Z,3.05
2023-12-11T17:42:11.855Z,3.78
2023-12-11T17:44:38.953Z,3.58
2023-12-11T17:47:06.301Z,3.10
2023-12-11T17:49:33.461Z,2.85
2023-12-11T17:52:00.882Z,3.05
2023-12-11T17:54:27.919Z,3.60
2023-12-11T17:56:56.324Z,3.85
2023-12-11T17:59:23.465Z,3.10
2023-12-11T18:01:50.630Z,2.70
2023-12-11T18:04:17.928Z,3.10
2023-12-11T18:06:45.155Z,2.88
2023-12-11T18:09:12.307Z,2.90
2023-12-11T18:11:39.305Z,3.30
2023-12-11T18:14:06.476Z,3.30
2023-12-11T18:16:33.869Z,3.00
2023-12-11T18:19:01.161Z,3.38
2023-12-11T18:21:28.372Z,3.50
2023-12-11T18:23:55.776Z,3.72
2023-12-11T18:26:22.873Z,3.65
2023-12-11T18:28:49.977Z,3.65
2023-12-11T18:31:17.012Z,3.60
2023-12-11T18:33:44.348Z,3.55
2023-12-11T18:36:11.919Z,2.63
2023-12-11T18:38:38.896Z,3.20
2023-12-11T18:41:06.624Z,3.28
2023-12-11T18:43:35.677Z,3.55
2023-12-11T18:46:03.237Z,3.28
2023-12-11T18:48:30.495Z,3.58
2023-12-11T18:50:57.693Z,3.80
2023-12-11T18:53:24.784Z,4.45
2023-12-11T18:56:02.031Z,3.67
2023-12-11T18:58:30.389Z,3.60
2023-12-11T19:00:58.380Z,3.20
2023-12-11T19:03:25.477Z,3.50
2023-12-11T19:05:52.673Z,3.60
2023-12-11T19:08:19.895Z,3.65
2023-12-11T19:10:47.080Z,4.05
2023-12-11T19:13:14.084Z,2.95
2023-12-11T19:15:42.139Z,3.70
2023-12-11T19:18:09.169Z,4.10
2023-12-11T19:20:36.305Z,3.80
2023-12-11T19:23:03.471Z,3.85
2023-12-11T19:25:30.732Z,4.22
2023-12-11T19:27:57.958Z,4.07
2023-12-11T19:30:25.753Z,3.83
2023-12-11T19:32:53.295Z,3.33
2023-12-11T19:35:20.858Z,4.15
2023-12-11T19:37:48.304Z,3.83
2023-12-11T19:40:17.206Z,4.07
2023-12-11T19:42:48.526Z,3.67
2023-12-11T19:45:16.628Z,3.67
2023-12-11T19:47:45.873Z,3.10
2023-12-11T19:50:13.341Z,3.38
2023-12-11T19:52:50.875Z,3.35
2023-12-11T19:55:19.072Z,3.85
2023-12-11T19:57:46.841Z,3.17
2023-12-11T20:00:14.499Z,3.78
2023-12-11T20:02:42.153Z,3.33
2023-12-11T20:05:09.553Z,3.55
2023-12-11T20:07:36.972Z,3.20
2023-12-11T20:10:05.233Z,4.13
2023-12-11T20:12:35.061Z,3.28
2023-12-11T20:15:02.368Z,3.42
2023-12-11T20:17:31.547Z,3.45
2023-12-11T20:20:01.153Z,3.60
2023-12-11T20:22:28.560Z,3.55
2023-12-11T20:24:56.149Z,3.65
2023-12-11T20:27:23.214Z,4.18
2023-12-11T20:29:51.035Z,3.22
2023-12-11T20:32:18.712Z,4.03
2023-12-11T20:34:45.862Z,3.60
2023-12-11T20:37:13.209Z,3.38
2023-12-11T20:39:40.689Z,3.05
2023-12-11T20:42:07.762Z,3.80
2023-12-11T20:44:34.889Z,3.20
2023-12-11T20:47:02.104Z,3.33
2023-12-11T20:49:29.438Z,3.42
2023-12-11T20:51:56.770Z,3.50
2023-12-11T20:54:23.837Z,3.35
2023-12-11T20:56:51.039Z,3.80
2023-12-11T20:59:18.223Z,3.83
2023-12-11T21:01:45.283Z,3.33
2023-12-11T21:04:12.549Z,3.95
2023-12-11T21:06:39.942Z,4.15
2023-12-11T21:09:12.248Z,4.43
2023-12-11T21:11:39.356Z,4.03
2023-12-11T21:14:06.405Z,4.15
2023-12-11T21:16:37.458Z,3.78
2023-12-11T21:19:04.816Z,3.72
2023-12-11T21:21:32.506Z,4.50
2023-12-11T21:23:59.598Z,5.35
2023-12-11T21:26:29.142Z,3.65
2023-12-11T21:28:56.303Z,3.67
2023-12-11T21:31:24.437Z,3.75
2023-12-11T21:33:55.122Z,3.63
2023-12-11T21:36:26.154Z,3.67
2023-12-11T21:38:53.546Z,3.22
2023-12-11T21:41:20.966Z,3.42
2023-12-11T21:43:50.399Z,4.15
2023-12-11T21:46:19.127Z,4.03
2023-12-11T21:48:49.832Z,3.33
2023-12-11T21:51:19.554Z,3.80
2023-12-11T21:53:48.071Z,4.25
2023-12-11T21:56:15.505Z,3.58
2023-12-11T21:58:43.691Z,3.25
2023-12-11T22:01:11.180Z,4.13
2023-12-11T22:03:38.804Z,3.20
2023-12-11T22:06:06.129Z,4.00
2023-12-11T22:08:33.168Z,3.70
2023-12-11T22:11:00.175Z,3.78
2023-12-11T22:13:27.215Z,3.40
2023-12-11T22:15:54.344Z,3.30
2023-12-11T22:18:22.225Z,2.92
2023-12-11T22:20:49.277Z,3.58
2023-12-11T22:23:16.432Z,3.55
2023-12-11T22:25:43.570Z,3.28
2023-12-11T22:28:10.635Z,3.47
2023-12-11T22:30:37.712Z,2.78
2023-12-11T22:33:04.956Z,2.97
2023-12-11T22:35:32.008Z,3.38
2023-12-11T22:37:59.198Z,3.42
2023-12-11T22:40:26.464Z,3.70
2023-12-11T22:42:53.655Z,3.45
2023-12-11T22:45:22.701Z,3.38
2023-12-11T22:47:50.138Z,3.50
2023-12-11T22:50:17.330Z,3.40
2023-12-11T22:52:44.499Z,4.00
2023-12-11T22:55:11.916Z,3.65
2023-12-11T22:57:40.741Z,3.47
2023-12-11T23:00:11.884Z,3.80
2023-12-11T23:02:39.148Z,4.13
2023-12-11T23:05:06.743Z,3.75
2023-12-11T23:07:34.411Z,4.70
2023-12-11T23:10:01.806Z,4.22
2023-12-11T23:12:28.947Z,4.07
2023-12-11T23:14:55.975Z,3.35
2023-12-11T23:17:23.002Z,3.80
2023-12-11T23:19:50.143Z,3.72
2023-12-11T23:22:17.349Z,3.83
2023-12-11T23:24:44.395Z,3.83
2023-12-11T23:27:11.683Z,3.55
2023-12-11T23:29:38.920Z,3.83
2023-12-11T23:32:07.129Z,3.58
2023-12-11T23:34:34.347Z,3.53
2023-12-11T23:37:01.499Z,3.90
2023-12-11T23:39:28.626Z,4.10
2023-12-11T23:41:55.746Z,3.95
2023-12-11T23:44:22.940Z,4.72
2023-12-11T23:46:50.042Z,3.78
2023-12-11T23:49:17.159Z,4.35
2023-12-11T23:51:44.215Z,4.32
2023-12-11T23:54:11.364Z,3.92
2023-12-11T23:56:38.416Z,4.15
2023-12-11T23:59:09.525Z,3.75
